sensor_id;sensor_type;location;lat;lon;timestamp;temperature;humidity
35680;DHT22;21803;53.586;10.040;2023-07-29T04:01:36;23.60;49.40
35680;DHT22;21803;53.586;10.040;2023-07-29T04:04:02;25.70;50.60
35680;DHT22;21803;53.586;10.040;2023-07-29T04:06:27;25.70;50.60
35680;DHT22;21803;53.586;10.040;2023-07-29T04:08:53;25.70;50.60
35680;DHT22;21803;53.586;10.040;2023-07-29T04:11:18;25.70;50.60
35680;DHT22;21803;53.586;10.040;2023-07-29T04:13:44;25.70;50.60
35680;DHT22;21803;53.586;10.040;2023-07-29T04:16:09;25.70;50.60
35680;DHT22;21803;53.586;10.040;2023-07-29T04:18:35;25.70;50.60
35680;DHT22;21803;53.586;10.040;2023-07-29T04:21:00;25.70;50.60
35680;DHT22;21803;53.586;10.040;2023-07-29T04:23:26;25.70;50.60
35680;DHT22;21803;53.586;10.040;2023-07-29T04:25:51;25.70;50.60
35680;DHT22;21803;53.586;10.040;2023-07-29T04:28:17;25.70;51.20
35680;DHT22;21803;53.586;10.040;2023-07-29T04:30:43;25.70;50.60
35680;DHT22;21803;53.586;10.040;2023-07-29T04:33:08;25.70;50.60
35680;DHT22;21803;53.586;10.040;2023-07-29T04:35:34;25.70;50.60
35680;DHT22;21803;53.586;10.040;2023-07-29T04:37:59;25.70;50.60
35680;DHT22;21803;53.586;10.040;2023-07-29T04:40:25;25.70;51.20
35680;DHT22;21803;53.586;10.040;2023-07-29T04:42:51;25.70;50.70
35680;DHT22;21803;53.586;10.040;2023-07-29T04:45:16;25.80;50.70
35680;DHT22;21803;53.586;10.040;2023-07-29T04:47:42;25.70;50.70
35680;DHT22;21803;53.586;10.040;2023-07-29T04:50:08;25.80;50.70
35680;DHT22;21803;53.586;10.040;2023-07-29T04:52:34;25.70;50.70
35680;DHT22;21803;53.586;10.040;2023-07-29T04:54:59;25.70;50.70
35680;DHT22;21803;53.586;10.040;2023-07-29T04:57:25;25.80;50.70
35680;DHT22;21803;53.586;10.040;2023-07-29T04:59:50;25.80;50.70
35680;DHT22;21803;53.586;10.040;2023-07-29T05:02:16;25.70;50.70
35680;DHT22;21803;53.586;10.040;2023-07-29T05:04:41;25.80;50.80
35680;DHT22;21803;53.586;10.040;2023-07-29T05:07:07;25.80;50.70
35680;DHT22;21803;53.586;10.040;2023-07-29T05:09:32;25.70;50.70
35680;DHT22;21803;53.586;10.040;2023-07-29T05:11:58;25.80;50.70
35680;DHT22;21803;53.586;10.040;2023-07-29T05:14:23;25.80;50.70
35680;DHT22;21803;53.586;10.040;2023-07-29T05:16:49;25.80;50.80
35680;DHT22;21803;53.586;10.040;2023-07-29T05:19:14;25.70;50.70
35680;DHT22;21803;53.586;10.040;2023-07-29T05:21:40;25.80;50.80
35680;DHT22;21803;53.586;10.040;2023-07-29T05:24:06;25.70;50.70
35680;DHT22;21803;53.586;10.040;2023-07-29T05:26:31;25.70;50.70
35680;DHT22;21803;53.586;10.040;2023-07-29T05:28:57;25.80;50.80
35680;DHT22;21803;53.586;10.040;2023-07-29T05:31:22;25.80;50.80
35680;DHT22;21803;53.586;10.040;2023-07-29T05:33:48;25.90;50.80
35680;DHT22;21803;53.586;10.040;2023-07-29T05:36:14;25.80;50.80
35680;DHT22;21803;53.586;10.040;2023-07-29T05:38:39;25.80;50.80
35680;DHT22;21803;53.586;10.040;2023-07-29T05:41:05;25.80;50.80
35680;DHT22;21803;53.586;10.040;2023-07-29T05:43:30;25.80;50.80
35680;DHT22;21803;53.586;10.040;2023-07-29T05:45:56;25.80;50.70
35680;DHT22;21803;53.586;10.040;2023-07-29T05:48:22;25.80;50.70
35680;DHT22;21803;53.586;10.040;2023-07-29T05:50:47;25.70;50.60
35680;DHT22;21803;53.586;10.040;2023-07-29T05:53:14;25.80;50.70
35680;DHT22;21803;53.586;10.040;2023-07-29T05:55:40;25.80;50.70
35680;DHT22;21803;53.586;10.040;2023-07-29T05:58:05;25.80;50.70
35680;DHT22;21803;53.586;10.040;2023-07-29T06:00:31;25.80;50.70
35680;DHT22;21803;53.586;10.040;2023-07-29T06:02:56;25.90;50.70
35680;DHT22;21803;53.586;10.040;2023-07-29T06:05:22;25.80;50.70
35680;DHT22;21803;53.586;10.040;2023-07-29T06:07:48;25.90;50.70
35680;DHT22;21803;53.586;10.040;2023-07-29T06:10:14;25.90;50.80
35680;DHT22;21803;53.586;10.040;2023-07-29T06:12:43;25.80;51.30
35680;DHT22;21803;53.586;10.040;2023-07-29T06:15:09;25.80;50.80
35680;DHT22;21803;53.586;10.040;2023-07-29T06:17:35;25.80;50.70
35680;DHT22;21803;53.586;10.040;2023-07-29T06:20:01;25.90;50.80
35680;DHT22;21803;53.586;10.040;2023-07-29T06:22:26;25.80;50.80
35680;DHT22;21803;53.586;10.040;2023-07-29T06:24:52;25.80;50.70
35680;DHT22;21803;53.586;10.040;2023-07-29T06:27:17;26.00;50.90
35680;DHT22;21803;53.586;10.040;2023-07-29T06:29:43;25.80;50.80
35680;DHT22;21803;53.586;10.040;2023-07-29T06:32:08;25.80;50.80
35680;DHT22;21803;53.586;10.040;2023-07-29T06:34:34;25.90;50.80
35680;DHT22;21803;53.586;10.040;2023-07-29T06:37:00;25.80;50.80
35680;DHT22;21803;53.586;10.040;2023-07-29T06:39:25;25.80;50.80
35680;DHT22;21803;53.586;10.040;2023-07-29T06:41:51;25.90;50.80
35680;DHT22;21803;53.586;10.040;2023-07-29T06:44:16;25.80;50.80
35680;DHT22;21803;53.586;10.040;2023-07-29T06:46:42;25.80;50.80
35680;DHT22;21803;53.586;10.040;2023-07-29T06:49:07;25.80;50.80
35680;DHT22;21803;53.586;10.040;2023-07-29T06:51:33;25.90;50.80
35680;DHT22;21803;53.586;10.040;2023-07-29T06:54:01;25.80;50.80
35680;DHT22;21803;53.586;10.040;2023-07-29T06:56:26;25.80;50.70
35680;DHT22;21803;53.586;10.040;2023-07-29T06:58:52;25.80;50.70
35680;DHT22;21803;53.586;10.040;2023-07-29T07:01:18;25.80;50.80
35680;DHT22;21803;53.586;10.040;2023-07-29T07:03:43;25.80;50.70
35680;DHT22;21803;53.586;10.040;2023-07-29T07:06:09;26.00;50.80
35680;DHT22;21803;53.586;10.040;2023-07-29T07:08:34;25.80;50.70
35680;DHT22;21803;53.586;10.040;2023-07-29T07:11:00;25.90;50.80
35680;DHT22;21803;53.586;10.040;2023-07-29T07:13:25;25.80;50.80
35680;DHT22;21803;53.586;10.040;2023-07-29T07:15:54;25.90;50.90
35680;DHT22;21803;53.586;10.040;2023-07-29T07:18:20;25.80;50.80
35680;DHT22;21803;53.586;10.040;2023-07-29T07:20:49;25.80;50.80
35680;DHT22;21803;53.586;10.040;2023-07-29T07:23:15;25.80;50.80
35680;DHT22;21803;53.586;10.040;2023-07-29T07:25:41;25.80;50.80
35680;DHT22;21803;53.586;10.040;2023-07-29T07:28:08;25.90;50.90
35680;DHT22;21803;53.586;10.040;2023-07-29T07:30:33;25.80;50.90
35680;DHT22;21803;53.586;10.040;2023-07-29T07:32:59;25.80;50.90
35680;DHT22;21803;53.586;10.040;2023-07-29T07:35:24;25.80;50.90
35680;DHT22;21803;53.586;10.040;2023-07-29T07:37:49;25.80;50.90
35680;DHT22;21803;53.586;10.040;2023-07-29T07:40:15;25.80;51.00
35680;DHT22;21803;53.586;10.040;2023-07-29T07:42:41;25.80;51.00
35680;DHT22;21803;53.586;10.040;2023-07-29T07:45:06;25.80;50.90
35680;DHT22;21803;53.586;10.040;2023-07-29T07:47:32;25.80;51.00
35680;DHT22;21803;53.586;10.040;2023-07-29T07:49:57;25.80;51.00
35680;DHT22;21803;53.586;10.040;2023-07-29T07:52:23;25.80;51.00
35680;DHT22;21803;53.586;10.040;2023-07-29T07:54:52;25.80;51.00
35680;DHT22;21803;53.586;10.040;2023-07-29T07:57:19;25.80;51.00
35680;DHT22;21803;53.586;10.040;2023-07-29T07:59:45;25.80;51.10
35680;DHT22;21803;53.586;10.040;2023-07-29T08:02:11;25.80;51.10
35680;DHT22;21803;53.586;10.040;2023-07-29T08:04:36;25.80;51.00
35680;DHT22;21803;53.586;10.040;2023-07-29T08:07:02;25.90;51.10
35680;DHT22;21803;53.586;10.040;2023-07-29T08:09:27;25.80;51.10
35680;DHT22;21803;53.586;10.040;2023-07-29T08:11:53;25.80;51.10
35680;DHT22;21803;53.586;10.040;2023-07-29T08:14:18;25.80;51.10
35680;DHT22;21803;53.586;10.040;2023-07-29T08:16:44;25.80;51.10
35680;DHT22;21803;53.586;10.040;2023-07-29T08:19:09;25.80;51.10
35680;DHT22;21803;53.586;10.040;2023-07-29T08:21:35;25.80;51.10
35680;DHT22;21803;53.586;10.040;2023-07-29T08:24:01;25.80;51.20
35680;DHT22;21803;53.586;10.040;2023-07-29T08:26:26;25.80;51.10
35680;DHT22;21803;53.586;10.040;2023-07-29T08:28:52;25.80;51.10
35680;DHT22;21803;53.586;10.040;2023-07-29T08:31:17;25.80;51.10
35680;DHT22;21803;53.586;10.040;2023-07-29T08:33:43;25.80;51.10
35680;DHT22;21803;53.586;10.040;2023-07-29T08:36:08;25.80;51.20
35680;DHT22;21803;53.586;10.040;2023-07-29T08:38:34;25.80;51.20
35680;DHT22;21803;53.586;10.040;2023-07-29T08:43:53;25.80;51.20
35680;DHT22;21803;53.586;10.040;2023-07-29T08:46:21;25.80;51.20
35680;DHT22;21803;53.586;10.040;2023-07-29T08:48:47;25.80;51.20
35680;DHT22;21803;53.586;10.040;2023-07-29T08:51:13;25.80;51.20
35680;DHT22;21803;53.586;10.040;2023-07-29T08:53:39;25.80;51.20
35680;DHT22;21803;53.586;10.040;2023-07-29T08:56:06;25.80;51.20
35680;DHT22;21803;53.586;10.040;2023-07-29T08:58:32;25.70;51.10
35680;DHT22;21803;53.586;10.040;2023-07-29T09:00:58;25.80;51.20
35680;DHT22;21803;53.586;10.040;2023-07-29T09:03:23;25.80;51.30
35680;DHT22;21803;53.586;10.040;2023-07-29T09:05:50;25.80;51.20
35680;DHT22;21803;53.586;10.040;2023-07-29T09:08:16;25.80;51.80
35680;DHT22;21803;53.586;10.040;2023-07-29T09:10:41;25.90;51.60
35680;DHT22;21803;53.586;10.040;2023-07-29T09:13:07;25.80;51.20
35680;DHT22;21803;53.586;10.040;2023-07-29T09:15:34;25.80;51.20
35680;DHT22;21803;53.586;10.040;2023-07-29T09:18:15;25.70;51.20
35680;DHT22;21803;53.586;10.040;2023-07-29T09:20:41;25.80;51.20
35680;DHT22;21803;53.586;10.040;2023-07-29T09:23:09;25.80;51.20
35680;DHT22;21803;53.586;10.040;2023-07-29T09:25:38;25.80;51.20
35680;DHT22;21803;53.586;10.040;2023-07-29T09:28:12;25.90;51.20
35680;DHT22;21803;53.586;10.040;2023-07-29T09:30:47;25.80;51.20
35680;DHT22;21803;53.586;10.040;2023-07-29T09:33:13;25.90;51.20
35680;DHT22;21803;53.586;10.040;2023-07-29T09:35:39;25.80;51.10
35680;DHT22;21803;53.586;10.040;2023-07-29T09:38:05;25.90;51.20
35680;DHT22;21803;53.586;10.040;2023-07-29T09:40:38;25.90;51.20
35680;DHT22;21803;53.586;10.040;2023-07-29T09:43:05;25.90;51.10
35680;DHT22;21803;53.586;10.040;2023-07-29T09:45:33;25.80;51.00
35680;DHT22;21803;53.586;10.040;2023-07-29T09:47:59;25.80;51.00
35680;DHT22;21803;53.586;10.040;2023-07-29T09:50:25;25.90;51.00
35680;DHT22;21803;53.586;10.040;2023-07-29T09:52:52;25.90;51.00
35680;DHT22;21803;53.586;10.040;2023-07-29T09:55:19;25.90;51.00
35680;DHT22;21803;53.586;10.040;2023-07-29T09:57:46;25.90;51.00
35680;DHT22;21803;53.586;10.040;2023-07-29T10:00:12;25.90;51.00
35680;DHT22;21803;53.586;10.040;2023-07-29T10:02:43;25.90;51.00
35680;DHT22;21803;53.586;10.040;2023-07-29T10:05:10;25.90;50.90
35680;DHT22;21803;53.586;10.040;2023-07-29T10:07:37;25.90;50.90
35680;DHT22;21803;53.586;10.040;2023-07-29T10:10:04;25.90;50.90
35680;DHT22;21803;53.586;10.040;2023-07-29T10:12:31;25.90;50.90
35680;DHT22;21803;53.586;10.040;2023-07-29T10:15:04;25.90;50.90
35680;DHT22;21803;53.586;10.040;2023-07-29T10:17:32;25.90;50.80
35680;DHT22;21803;53.586;10.040;2023-07-29T10:19:59;25.90;50.70
35680;DHT22;21803;53.586;10.040;2023-07-29T10:22:38;25.90;50.70
35680;DHT22;21803;53.586;10.040;2023-07-29T10:25:07;25.70;50.50
35680;DHT22;21803;53.586;10.040;2023-07-29T10:27:43;25.90;50.60
35680;DHT22;21803;53.586;10.040;2023-07-29T10:30:13;25.90;50.60
35680;DHT22;21803;53.586;10.040;2023-07-29T10:32:39;25.90;50.60
35680;DHT22;21803;53.586;10.040;2023-07-29T10:35:07;25.90;50.60
35680;DHT22;21803;53.586;10.040;2023-07-29T10:37:33;25.90;50.60
35680;DHT22;21803;53.586;10.040;2023-07-29T10:39:58;25.90;50.60
35680;DHT22;21803;53.586;10.040;2023-07-29T10:42:24;26.00;50.70
35680;DHT22;21803;53.586;10.040;2023-07-29T10:44:51;25.90;50.70
35680;DHT22;21803;53.586;10.040;2023-07-29T10:47:24;25.90;50.70
35680;DHT22;21803;53.586;10.040;2023-07-29T10:49:55;25.90;50.70
35680;DHT22;21803;53.586;10.040;2023-07-29T10:52:30;25.90;50.70
35680;DHT22;21803;53.586;10.040;2023-07-29T10:54:55;25.90;50.70
35680;DHT22;21803;53.586;10.040;2023-07-29T10:59:57;26.00;50.60
35680;DHT22;21803;53.586;10.040;2023-07-29T11:02:29;25.90;50.60
35680;DHT22;21803;53.586;10.040;2023-07-29T11:04:56;25.90;50.50
35680;DHT22;21803;53.586;10.040;2023-07-29T11:07:22;25.80;50.50
35680;DHT22;21803;53.586;10.040;2023-07-29T11:09:59;25.80;50.40
35680;DHT22;21803;53.586;10.040;2023-07-29T11:15:12;25.90;50.60
35680;DHT22;21803;53.586;10.040;2023-07-29T11:20:16;25.90;50.50
35680;DHT22;21803;53.586;10.040;2023-07-29T11:22:42;25.90;50.50
35680;DHT22;21803;53.586;10.040;2023-07-29T11:25:09;25.90;50.60
35680;DHT22;21803;53.586;10.040;2023-07-29T11:27:36;25.90;50.50
35680;DHT22;21803;53.586;10.040;2023-07-29T11:30:06;25.90;50.60
35680;DHT22;21803;53.586;10.040;2023-07-29T11:32:34;25.90;50.50
35680;DHT22;21803;53.586;10.040;2023-07-29T11:35:08;25.90;50.50
35680;DHT22;21803;53.586;10.040;2023-07-29T11:37:35;25.90;50.50
35680;DHT22;21803;53.586;10.040;2023-07-29T11:40:02;25.90;51.10
35680;DHT22;21803;53.586;10.040;2023-07-29T11:42:28;25.90;50.50
35680;DHT22;21803;53.586;10.040;2023-07-29T11:44:57;25.90;50.60
35680;DHT22;21803;53.586;10.040;2023-07-29T11:47:23;26.00;50.60
35680;DHT22;21803;53.586;10.040;2023-07-29T11:49:49;25.90;50.50
35680;DHT22;21803;53.586;10.040;2023-07-29T11:52:14;25.90;50.50
35680;DHT22;21803;53.586;10.040;2023-07-29T11:54:44;26.00;50.60
35680;DHT22;21803;53.586;10.040;2023-07-29T11:57:10;25.90;50.60
35680;DHT22;21803;53.586;10.040;2023-07-29T11:59:36;25.90;50.50
35680;DHT22;21803;53.586;10.040;2023-07-29T12:02:08;25.90;50.50
35680;DHT22;21803;53.586;10.040;2023-07-29T12:04:35;25.90;50.60
35680;DHT22;21803;53.586;10.040;2023-07-29T12:07:01;26.00;50.60
35680;DHT22;21803;53.586;10.040;2023-07-29T12:09:28;25.90;50.60
35680;DHT22;21803;53.586;10.040;2023-07-29T12:11:54;25.90;50.60
35680;DHT22;21803;53.586;10.040;2023-07-29T12:14:19;25.90;50.50
35680;DHT22;21803;53.586;10.040;2023-07-29T12:16:48;25.80;50.40
35680;DHT22;21803;53.586;10.040;2023-07-29T12:19:15;25.90;50.50
35680;DHT22;21803;53.586;10.040;2023-07-29T12:21:42;25.90;50.40
35680;DHT22;21803;53.586;10.040;2023-07-29T12:24:08;26.00;50.50
35680;DHT22;21803;53.586;10.040;2023-07-29T12:26:35;25.90;50.50
35680;DHT22;21803;53.586;10.040;2023-07-29T12:29:11;25.90;50.50
35680;DHT22;21803;53.586;10.040;2023-07-29T12:31:38;25.90;50.50
35680;DHT22;21803;53.586;10.040;2023-07-29T12:34:03;25.90;50.50
35680;DHT22;21803;53.586;10.040;2023-07-29T12:36:43;25.90;50.40
35680;DHT22;21803;53.586;10.040;2023-07-29T12:39:20;25.90;50.50
35680;DHT22;21803;53.586;10.040;2023-07-29T12:41:46;25.90;50.50
35680;DHT22;21803;53.586;10.040;2023-07-29T12:44:12;26.00;50.60
35680;DHT22;21803;53.586;10.040;2023-07-29T12:46:38;25.90;50.50
35680;DHT22;21803;53.586;10.040;2023-07-29T12:49:03;25.90;50.50
35680;DHT22;21803;53.586;10.040;2023-07-29T12:51:29;25.90;50.40
35680;DHT22;21803;53.586;10.040;2023-07-29T12:53:54;25.90;50.40
35680;DHT22;21803;53.586;10.040;2023-07-29T12:56:20;25.90;50.40
35680;DHT22;21803;53.586;10.040;2023-07-29T12:58:46;26.00;50.40
35680;DHT22;21803;53.586;10.040;2023-07-29T13:01:11;25.90;50.40
35680;DHT22;21803;53.586;10.040;2023-07-29T13:03:42;25.80;50.40
35680;DHT22;21803;53.586;10.040;2023-07-29T13:06:08;25.90;50.30
35680;DHT22;21803;53.586;10.040;2023-07-29T13:08:33;25.70;50.20
35680;DHT22;21803;53.586;10.040;2023-07-29T13:10:59;25.90;50.30
35680;DHT22;21803;53.586;10.040;2023-07-29T13:13:24;25.90;50.40
35680;DHT22;21803;53.586;10.040;2023-07-29T13:15:50;25.90;50.40
35680;DHT22;21803;53.586;10.040;2023-07-29T13:18:16;25.90;50.40
35680;DHT22;21803;53.586;10.040;2023-07-29T13:20:41;25.90;50.40
35680;DHT22;21803;53.586;10.040;2023-07-29T13:23:07;25.90;50.30
35680;DHT22;21803;53.586;10.040;2023-07-29T13:25:32;25.90;50.40
35680;DHT22;21803;53.586;10.040;2023-07-29T13:27:58;25.90;50.30
35680;DHT22;21803;53.586;10.040;2023-07-29T13:30:24;25.90;50.30
35680;DHT22;21803;53.586;10.040;2023-07-29T13:32:49;26.00;50.40
35680;DHT22;21803;53.586;10.040;2023-07-29T13:35:15;26.00;50.40
35680;DHT22;21803;53.586;10.040;2023-07-29T13:37:40;26.00;50.50
35680;DHT22;21803;53.586;10.040;2023-07-29T13:40:06;25.90;50.40
35680;DHT22;21803;53.586;10.040;2023-07-29T13:42:32;25.90;50.40
35680;DHT22;21803;53.586;10.040;2023-07-29T13:44:57;25.90;50.40
35680;DHT22;21803;53.586;10.040;2023-07-29T13:47:23;26.00;50.50
35680;DHT22;21803;53.586;10.040;2023-07-29T13:49:48;25.90;50.40
35680;DHT22;21803;53.586;10.040;2023-07-29T13:52:14;25.90;50.40
35680;DHT22;21803;53.586;10.040;2023-07-29T13:54:40;25.90;50.50
35680;DHT22;21803;53.586;10.040;2023-07-29T13:57:05;25.90;50.50
35680;DHT22;21803;53.586;10.040;2023-07-29T13:59:32;25.90;50.40
35680;DHT22;21803;53.586;10.040;2023-07-29T14:01:58;26.00;50.50
35680;DHT22;21803;53.586;10.040;2023-07-29T14:04:23;25.90;50.50
35680;DHT22;21803;53.586;10.040;2023-07-29T14:06:49;25.90;50.40
35680;DHT22;21803;53.586;10.040;2023-07-29T14:09:14;25.90;50.40
35680;DHT22;21803;53.586;10.040;2023-07-29T14:11:40;26.00;50.30
35680;DHT22;21803;53.586;10.040;2023-07-29T14:14:06;25.90;50.30
35680;DHT22;21803;53.586;10.040;2023-07-29T14:16:31;25.90;50.30
35680;DHT22;21803;53.586;10.040;2023-07-29T14:18:57;25.90;50.30
35680;DHT22;21803;53.586;10.040;2023-07-29T14:21:22;25.90;50.30
35680;DHT22;21803;53.586;10.040;2023-07-29T14:23:48;25.90;50.30
35680;DHT22;21803;53.586;10.040;2023-07-29T14:26:13;25.90;50.30
35680;DHT22;21803;53.586;10.040;2023-07-29T14:28:39;25.90;50.30
35680;DHT22;21803;53.586;10.040;2023-07-29T14:31:04;25.90;50.20
35680;DHT22;21803;53.586;10.040;2023-07-29T14:33:30;25.80;50.10
35680;DHT22;21803;53.586;10.040;2023-07-29T14:35:55;25.90;50.30
35680;DHT22;21803;53.586;10.040;2023-07-29T14:38:21;25.90;50.20
35680;DHT22;21803;53.586;10.040;2023-07-29T14:40:48;26.00;50.30
35680;DHT22;21803;53.586;10.040;2023-07-29T14:43:14;25.90;50.20
35680;DHT22;21803;53.586;10.040;2023-07-29T14:45:39;26.00;50.30
35680;DHT22;21803;53.586;10.040;2023-07-29T14:48:05;26.00;50.30
35680;DHT22;21803;53.586;10.040;2023-07-29T14:50:31;25.90;50.30
35680;DHT22;21803;53.586;10.040;2023-07-29T14:52:56;26.00;50.30
35680;DHT22;21803;53.586;10.040;2023-07-29T14:55:22;26.00;50.30
35680;DHT22;21803;53.586;10.040;2023-07-29T14:57:47;25.90;50.30
35680;DHT22;21803;53.586;10.040;2023-07-29T15:00:13;25.90;50.30
35680;DHT22;21803;53.586;10.040;2023-07-29T15:02:40;26.00;50.40
35680;DHT22;21803;53.586;10.040;2023-07-29T15:05:07;26.00;50.40
35680;DHT22;21803;53.586;10.040;2023-07-29T15:07:32;26.00;50.40
35680;DHT22;21803;53.586;10.040;2023-07-29T15:09:58;25.90;50.30
35680;DHT22;21803;53.586;10.040;2023-07-29T15:12:24;26.00;50.40
35680;DHT22;21803;53.586;10.040;2023-07-29T15:14:49;25.90;50.40
35680;DHT22;21803;53.586;10.040;2023-07-29T15:17:15;26.10;50.40
35680;DHT22;21803;53.586;10.040;2023-07-29T15:19:40;25.90;50.30
35680;DHT22;21803;53.586;10.040;2023-07-29T15:22:06;26.00;50.40
35680;DHT22;21803;53.586;10.040;2023-07-29T15:24:31;26.00;50.40
35680;DHT22;21803;53.586;10.040;2023-07-29T15:26:57;25.90;50.30
35680;DHT22;21803;53.586;10.040;2023-07-29T15:29:22;25.90;50.30
35680;DHT22;21803;53.586;10.040;2023-07-29T15:31:48;26.00;50.40
35680;DHT22;21803;53.586;10.040;2023-07-29T15:34:13;26.00;50.40
35680;DHT22;21803;53.586;10.040;2023-07-29T15:36:39;26.00;50.40
35680;DHT22;21803;53.586;10.040;2023-07-29T15:39:04;26.00;50.50
35680;DHT22;21803;53.586;10.040;2023-07-29T15:41:32;26.00;50.50
35680;DHT22;21803;53.586;10.040;2023-07-29T15:43:59;26.00;50.50
35680;DHT22;21803;53.586;10.040;2023-07-29T15:46:24;26.10;50.50
35680;DHT22;21803;53.586;10.040;2023-07-29T15:48:50;26.00;50.50
35680;DHT22;21803;53.586;10.040;2023-07-29T15:51:15;26.00;50.50
35680;DHT22;21803;53.586;10.040;2023-07-29T15:53:41;26.00;50.50
35680;DHT22;21803;53.586;10.040;2023-07-29T15:56:06;25.90;50.40
35680;DHT22;21803;53.586;10.040;2023-07-29T15:58:32;26.10;50.50
35680;DHT22;21803;53.586;10.040;2023-07-29T16:00:57;26.00;50.40
35680;DHT22;21803;53.586;10.040;2023-07-29T16:03:23;25.90;50.40
35680;DHT22;21803;53.586;10.040;2023-07-29T16:05:49;25.80;50.30
35680;DHT22;21803;53.586;10.040;2023-07-29T16:08:14;26.00;50.40
35680;DHT22;21803;53.586;10.040;2023-07-29T16:10:40;25.80;50.30
35680;DHT22;21803;53.586;10.040;2023-07-29T16:13:05;25.90;50.30
35680;DHT22;21803;53.586;10.040;2023-07-29T16:15:31;25.90;50.30
35680;DHT22;21803;53.586;10.040;2023-07-29T16:17:57;26.00;50.30
35680;DHT22;21803;53.586;10.040;2023-07-29T16:20:25;25.90;50.30
35680;DHT22;21803;53.586;10.040;2023-07-29T16:22:51;26.00;50.30
35680;DHT22;21803;53.586;10.040;2023-07-29T16:25:17;25.90;50.30
35680;DHT22;21803;53.586;10.040;2023-07-29T16:27:42;25.90;50.20
35680;DHT22;21803;53.586;10.040;2023-07-29T16:30:08;25.90;50.30
35680;DHT22;21803;53.586;10.040;2023-07-29T16:32:34;25.90;50.30
35680;DHT22;21803;53.586;10.040;2023-07-29T16:35:00;26.00;50.30
35680;DHT22;21803;53.586;10.040;2023-07-29T16:37:25;25.90;50.20
35680;DHT22;21803;53.586;10.040;2023-07-29T16:39:51;26.00;50.30
35680;DHT22;21803;53.586;10.040;2023-07-29T16:42:16;26.00;50.30
35680;DHT22;21803;53.586;10.040;2023-07-29T16:44:42;26.10;50.40
35680;DHT22;21803;53.586;10.040;2023-07-29T16:47:07;25.90;50.20
35680;DHT22;21803;53.586;10.040;2023-07-29T16:49:33;25.90;50.20
35680;DHT22;21803;53.586;10.040;2023-07-29T16:51:58;26.00;50.30
35680;DHT22;21803;53.586;10.040;2023-07-29T16:54:24;25.90;50.20
35680;DHT22;21803;53.586;10.040;2023-07-29T16:56:49;25.90;50.20
35680;DHT22;21803;53.586;10.040;2023-07-29T16:59:16;26.00;50.30
35680;DHT22;21803;53.586;10.040;2023-07-29T17:01:42;25.90;50.20
35680;DHT22;21803;53.586;10.040;2023-07-29T17:04:08;25.90;50.20
35680;DHT22;21803;53.586;10.040;2023-07-29T17:06:33;26.00;50.30
35680;DHT22;21803;53.586;10.040;2023-07-29T17:08:59;25.90;50.20
35680;DHT22;21803;53.586;10.040;2023-07-29T17:11:24;25.90;50.20
35680;DHT22;21803;53.586;10.040;2023-07-29T17:13:50;26.00;50.20
35680;DHT22;21803;53.586;10.040;2023-07-29T17:16:15;25.90;50.20
35680;DHT22;21803;53.586;10.040;2023-07-29T17:18:42;25.90;50.20
35680;DHT22;21803;53.586;10.040;2023-07-29T17:21:07;25.90;50.20
35680;DHT22;21803;53.586;10.040;2023-07-29T17:23:33;25.90;50.20
35680;DHT22;21803;53.586;10.040;2023-07-29T17:25:58;25.90;50.20
35680;DHT22;21803;53.586;10.040;2023-07-29T17:28:24;25.90;50.20
35680;DHT22;21803;53.586;10.040;2023-07-29T17:30:50;25.90;50.20
35680;DHT22;21803;53.586;10.040;2023-07-29T17:33:16;25.90;50.20
35680;DHT22;21803;53.586;10.040;2023-07-29T17:35:43;25.90;50.20
35680;DHT22;21803;53.586;10.040;2023-07-29T17:38:09;26.00;50.20
35680;DHT22;21803;53.586;10.040;2023-07-29T17:40:35;25.90;50.20
35680;DHT22;21803;53.586;10.040;2023-07-29T17:43:01;25.90;50.10
35680;DHT22;21803;53.586;10.040;2023-07-29T17:45:27;25.90;50.20
35680;DHT22;21803;53.586;10.040;2023-07-29T17:47:52;26.00;50.30
35680;DHT22;21803;53.586;10.040;2023-07-29T17:50:18;25.90;50.20
35680;DHT22;21803;53.586;10.040;2023-07-29T17:52:45;26.00;50.20
35680;DHT22;21803;53.586;10.040;2023-07-29T17:55:11;24.10;49.20
35680;DHT22;21803;53.586;10.040;2023-07-29T17:57:36;25.90;50.10
35680;DHT22;21803;53.586;10.040;2023-07-29T18:00:02;25.90;50.10
35680;DHT22;21803;53.586;10.040;2023-07-29T18:02:31;25.90;50.10
35680;DHT22;21803;53.586;10.040;2023-07-29T18:04:56;25.90;50.10
35680;DHT22;21803;53.586;10.040;2023-07-29T18:07:23;25.90;50.10
35680;DHT22;21803;53.586;10.040;2023-07-29T18:09:49;25.90;50.00
35680;DHT22;21803;53.586;10.040;2023-07-29T18:12:15;25.90;50.10
35680;DHT22;21803;53.586;10.040;2023-07-29T18:14:40;25.90;50.10
35680;DHT22;21803;53.586;10.040;2023-07-29T18:17:06;26.00;50.10
35680;DHT22;21803;53.586;10.040;2023-07-29T18:19:31;25.90;50.10
35680;DHT22;21803;53.586;10.040;2023-07-29T18:21:58;25.90;50.10
35680;DHT22;21803;53.586;10.040;2023-07-29T18:24:23;26.00;50.10
35680;DHT22;21803;53.586;10.040;2023-07-29T18:26:49;25.90;50.00
35680;DHT22;21803;53.586;10.040;2023-07-29T18:29:14;25.90;50.00
35680;DHT22;21803;53.586;10.040;2023-07-29T18:31:40;25.80;49.90
35680;DHT22;21803;53.586;10.040;2023-07-29T18:34:05;25.90;50.30
35680;DHT22;21803;53.586;10.040;2023-07-29T18:36:31;25.90;50.00
35680;DHT22;21803;53.586;10.040;2023-07-29T18:38:57;25.90;50.00
35680;DHT22;21803;53.586;10.040;2023-07-29T18:41:22;25.90;50.00
35680;DHT22;21803;53.586;10.040;2023-07-29T18:43:48;26.00;50.00
35680;DHT22;21803;53.586;10.040;2023-07-29T18:46:13;25.70;49.80
35680;DHT22;21803;53.586;10.040;2023-07-29T18:48:39;25.90;50.00
35680;DHT22;21803;53.586;10.040;2023-07-29T18:51:04;25.80;49.80
35680;DHT22;21803;53.586;10.040;2023-07-29T18:53:30;25.90;49.90
35680;DHT22;21803;53.586;10.040;2023-07-29T18:55:56;25.90;50.00
35680;DHT22;21803;53.586;10.040;2023-07-29T18:58:21;25.90;49.90
35680;DHT22;21803;53.586;10.040;2023-07-29T19:00:47;25.90;49.90
35680;DHT22;21803;53.586;10.040;2023-07-29T19:03:14;25.90;50.00
35680;DHT22;21803;53.586;10.040;2023-07-29T19:05:40;25.90;50.00
35680;DHT22;21803;53.586;10.040;2023-07-29T19:08:05;25.90;49.90
35680;DHT22;21803;53.586;10.040;2023-07-29T19:10:34;25.90;49.90
35680;DHT22;21803;53.586;10.040;2023-07-29T19:12:59;25.90;49.90
35680;DHT22;21803;53.586;10.040;2023-07-29T19:15:25;25.90;49.90
35680;DHT22;21803;53.586;10.040;2023-07-29T19:17:50;25.90;50.00
35680;DHT22;21803;53.586;10.040;2023-07-29T19:20:16;25.90;50.00